<?xml version="1.0" encoding="UTF-8" standalone="no" ?>
<gpx xmlns="http://www.topografix.com/GPX/1/1" xmlns:xsi="http://www.w3.org/2001/XMLSchema-instance" xsi:schemaLocation="http://www.topografix.com/GPX/1/1 http://www.topografix.com/GPX/1/1/gpx.xsd" version="1.1" creator="VisuGPX - https://www.visugpx.com">
  <metadata>
    <name>Randonnée  Les Collines du Verdon </name>
    <desc><![CDATA[Très belle randonnée . Parcours de 35 Km.]]></desc>
  </metadata>
  <trk>
    <name><![CDATA[Collines du verdon]]></name>
    <desc><![CDATA[(null)]]></desc>
    <trkseg>
      <trkpt lat="43.75741" lon="5.88575">
        <ele>345.5</ele>
        <time>2010-11-11T09:18:47Z</time>
      </trkpt>
      <trkpt lat="43.75677" lon="5.88549">
        <ele>319.12706</ele>
        <time>2010-11-11T09:19:25Z</time>
      </trkpt>
      <trkpt lat="43.75629" lon="5.88657">
        <ele>356.12719</ele>
        <time>2010-11-11T09:26:16Z</time>
      </trkpt>
      <trkpt lat="43.75581" lon="5.88764">
        <ele>357.127319</ele>
        <time>2010-11-11T09:26:33Z</time>
      </trkpt>
      <trkpt lat="43.75536" lon="5.88883">
        <ele>356.127476</ele>
        <time>2010-11-11T09:26:45Z</time>
      </trkpt>
      <trkpt lat="43.75472" lon="5.88974">
        <ele>352.127541</ele>
        <time>2010-11-11T09:26:54Z</time>
      </trkpt>
      <trkpt lat="43.75378" lon="5.88989">
        <ele>346.12738</ele>
        <time>2010-11-11T09:27:10Z</time>
      </trkpt>
      <trkpt lat="43.7531" lon="5.88906">
        <ele>336.127064</ele>
        <time>2010-11-11T09:27:38Z</time>
      </trkpt>
      <trkpt lat="43.75309" lon="5.88777">
        <ele>329.126785</ele>
        <time>2010-11-11T09:27:53Z</time>
      </trkpt>
      <trkpt lat="43.75287" lon="5.88656">
        <ele>320.126484</ele>
        <time>2010-11-11T09:28:14Z</time>
      </trkpt>
      <trkpt lat="43.75249" lon="5.88542">
        <ele>317.12616</ele>
        <time>2010-11-11T09:28:40Z</time>
      </trkpt>
      <trkpt lat="43.75213" lon="5.88426">
        <ele>314.125839</ele>
        <time>2010-11-11T09:29:06Z</time>
      </trkpt>
      <trkpt lat="43.75172" lon="5.88312">
        <ele>313.125519</ele>
        <time>2010-11-11T09:29:35Z</time>
      </trkpt>
      <trkpt lat="43.75114" lon="5.88216">
        <ele>328.125195</ele>
        <time>2010-11-11T09:31:22Z</time>
      </trkpt>
      <trkpt lat="43.75021" lon="5.88194">
        <ele>331.124954</ele>
        <time>2010-11-11T09:32:04Z</time>
      </trkpt>
      <trkpt lat="43.74939" lon="5.88136">
        <ele>333.124668</ele>
        <time>2010-11-11T09:32:16Z</time>
      </trkpt>
      <trkpt lat="43.74863" lon="5.88061">
        <ele>333.124344</ele>
        <time>2010-11-11T09:32:28Z</time>
      </trkpt>
      <trkpt lat="43.74792" lon="5.87971">
        <ele>330.124012</ele>
        <time>2010-11-11T09:32:44Z</time>
      </trkpt>
      <trkpt lat="43.74726" lon="5.87878">
        <ele>330.123676</ele>
        <time>2010-11-11T09:32:56Z</time>
      </trkpt>
      <trkpt lat="43.74685" lon="5.87762">
        <ele>327.123344</ele>
        <time>2010-11-11T09:33:10Z</time>
      </trkpt>
      <trkpt lat="43.74659" lon="5.8764">
        <ele>325.123035</ele>
        <time>2010-11-11T09:33:25Z</time>
      </trkpt>
      <trkpt lat="43.7463" lon="5.87517">
        <ele>323.122707</ele>
        <time>2010-11-11T09:33:41Z</time>
      </trkpt>
      <trkpt lat="43.74565" lon="5.87427">
        <ele>321.122383</ele>
        <time>2010-11-11T09:33:56Z</time>
      </trkpt>
      <trkpt lat="43.74501" lon="5.8733">
        <ele>319.122047</ele>
        <time>2010-11-11T09:34:11Z</time>
      </trkpt>
      <trkpt lat="43.74435" lon="5.87244">
        <ele>317.121727</ele>
        <time>2010-11-11T09:34:25Z</time>
      </trkpt>
      <trkpt lat="43.7437" lon="5.87153">
        <ele>316.121399</ele>
        <time>2010-11-11T09:34:40Z</time>
      </trkpt>
      <trkpt lat="43.74309" lon="5.87057">
        <ele>314.121071</ele>
        <time>2010-11-11T09:34:55Z</time>
      </trkpt>
      <trkpt lat="43.74248" lon="5.86962">
        <ele>313.120743</ele>
        <time>2010-11-11T09:35:12Z</time>
      </trkpt>
      <trkpt lat="43.74185" lon="5.86863">
        <ele>312.120399</ele>
        <time>2010-11-11T09:35:28Z</time>
      </trkpt>
      <trkpt lat="43.74125" lon="5.86768">
        <ele>312.120071</ele>
        <time>2010-11-11T09:35:44Z</time>
      </trkpt>
      <trkpt lat="43.74062" lon="5.86669">
        <ele>312.119736</ele>
        <time>2010-11-11T09:36:01Z</time>
      </trkpt>
      <trkpt lat="43.74002" lon="5.86575">
        <ele>309.119408</ele>
        <time>2010-11-11T09:36:17Z</time>
      </trkpt>
      <trkpt lat="43.73941" lon="5.86477">
        <ele>307.119072</ele>
        <time>2010-11-11T09:36:34Z</time>
      </trkpt>
      <trkpt lat="43.73878" lon="5.8638">
        <ele>306.118736</ele>
        <time>2010-11-11T09:36:52Z</time>
      </trkpt>
      <trkpt lat="43.73817" lon="5.86288">
        <ele>304.118416</ele>
        <time>2010-11-11T09:37:08Z</time>
      </trkpt>
      <trkpt lat="43.73755" lon="5.86188">
        <ele>304.118073</ele>
        <time>2010-11-11T09:37:24Z</time>
      </trkpt>
      <trkpt lat="43.73697" lon="5.86094">
        <ele>305.117752</ele>
        <time>2010-11-11T09:37:40Z</time>
      </trkpt>
      <trkpt lat="43.73613" lon="5.86042">
        <ele>305.11747</ele>
        <time>2010-11-11T09:38:02Z</time>
      </trkpt>
      <trkpt lat="43.73538" lon="5.86112">
        <ele>305.117462</ele>
        <time>2010-11-11T09:38:19Z</time>
      </trkpt>
      <trkpt lat="43.73459" lon="5.86182">
        <ele>303.117447</ele>
        <time>2010-11-11T09:38:38Z</time>
      </trkpt>
      <trkpt lat="43.73395" lon="5.86272">
        <ele>305.117508</ele>
        <time>2010-11-11T09:39:00Z</time>
      </trkpt>
      <trkpt lat="43.73358" lon="5.86387">
        <ele>311.117676</ele>
        <time>2010-11-11T09:39:26Z</time>
      </trkpt>
      <trkpt lat="43.7333" lon="5.86507">
        <ele>315.117874</ele>
        <time>2010-11-11T09:39:58Z</time>
      </trkpt>
      <trkpt lat="43.73297" lon="5.86623">
        <ele>321.118053</ele>
        <time>2010-11-11T09:40:34Z</time>
      </trkpt>
      <trkpt lat="43.73244" lon="5.86725">
        <ele>325.11816</ele>
        <time>2010-11-11T09:41:12Z</time>
      </trkpt>
      <trkpt lat="43.73154" lon="5.86705">
        <ele>337.117928</ele>
        <time>2010-11-11T09:42:24Z</time>
      </trkpt>
      <trkpt lat="43.73062" lon="5.86705">
        <ele>345.117744</ele>
        <time>2010-11-11T09:42:58Z</time>
      </trkpt>
      <trkpt lat="43.72974" lon="5.86672">
        <ele>348.117493</ele>
        <time>2010-11-11T09:43:33Z</time>
      </trkpt>
      <trkpt lat="43.72884" lon="5.86696">
        <ele>352.117355</ele>
        <time>2010-11-11T09:43:52Z</time>
      </trkpt>
      <trkpt lat="43.72795" lon="5.86728">
        <ele>355.117245</ele>
        <time>2010-11-11T09:44:16Z</time>
      </trkpt>
      <trkpt lat="43.72732" lon="5.8682">
        <ele>356.11731</ele>
        <time>2010-11-11T09:44:48Z</time>
      </trkpt>
      <trkpt lat="43.72684" lon="5.86928">
        <ele>362.117435</ele>
        <time>2010-11-11T09:45:27Z</time>
      </trkpt>
      <trkpt lat="43.72612" lon="5.87005">
        <ele>371.117455</ele>
        <time>2010-11-11T09:46:23Z</time>
      </trkpt>
      <trkpt lat="43.72564" lon="5.87112">
        <ele>378.117584</ele>
        <time>2010-11-11T09:47:12Z</time>
      </trkpt>
      <trkpt lat="43.72491" lon="5.87185">
        <ele>391.117588</ele>
        <time>2010-11-11T09:48:14Z</time>
      </trkpt>
      <trkpt lat="43.72422" lon="5.87265">
        <ele>404.117619</ele>
        <time>2010-11-11T09:49:16Z</time>
      </trkpt>
      <trkpt lat="43.72377" lon="5.87373">
        <ele>416.117756</ele>
        <time>2010-11-11T09:50:50Z</time>
      </trkpt>
      <trkpt lat="43.72343" lon="5.87489">
        <ele>419.117935</ele>
        <time>2010-11-11T09:51:38Z</time>
      </trkpt>
      <trkpt lat="43.72255" lon="5.8746">
        <ele>419.117691</ele>
        <time>2010-11-11T09:53:16Z</time>
      </trkpt>
      <trkpt lat="43.72173" lon="5.87399">
        <ele>420.117393</ele>
        <time>2010-11-11T09:53:47Z</time>
      </trkpt>
      <trkpt lat="43.72124" lon="5.87294">
        <ele>421.117065</ele>
        <time>2010-11-11T09:54:13Z</time>
      </trkpt>
      <trkpt lat="43.72034" lon="5.87281">
        <ele>423.116852</ele>
        <time>2010-11-11T09:54:40Z</time>
      </trkpt>
      <trkpt lat="43.71946" lon="5.87306">
        <ele>424.116722</ele>
        <time>2010-11-11T09:55:00Z</time>
      </trkpt>
      <trkpt lat="43.71861" lon="5.87347">
        <ele>415.116638</ele>
        <time>2010-11-11T09:55:32Z</time>
      </trkpt>
      <trkpt lat="43.71794" lon="5.87258">
        <ele>398.11631</ele>
        <time>2010-11-11T09:55:59Z</time>
      </trkpt>
      <trkpt lat="43.71704" lon="5.87268">
        <ele>376.116142</ele>
        <time>2010-11-11T09:56:42Z</time>
      </trkpt>
      <trkpt lat="43.7166" lon="5.87383">
        <ele>366.116299</ele>
        <time>2010-11-11T09:57:07Z</time>
      </trkpt>
      <trkpt lat="43.71653" lon="5.87508">
        <ele>369.116547</ele>
        <time>2010-11-11T09:58:37Z</time>
      </trkpt>
      <trkpt lat="43.71623" lon="5.87626">
        <ele>362.116741</ele>
        <time>2010-11-11T09:59:40Z</time>
      </trkpt>
      <trkpt lat="43.71587" lon="5.87744">
        <ele>360.11692</ele>
        <time>2010-11-11T10:00:03Z</time>
      </trkpt>
      <trkpt lat="43.7155" lon="5.87866">
        <ele>359.117104</ele>
        <time>2010-11-11T10:00:21Z</time>
      </trkpt>
      <trkpt lat="43.71495" lon="5.87965">
        <ele>358.117203</ele>
        <time>2010-11-11T10:00:36Z</time>
      </trkpt>
      <trkpt lat="43.71444" lon="5.88072">
        <ele>357.117329</ele>
        <time>2010-11-11T10:00:54Z</time>
      </trkpt>
      <trkpt lat="43.71508" lon="5.88162">
        <ele>358.117653</ele>
        <time>2010-11-11T10:01:13Z</time>
      </trkpt>
      <trkpt lat="43.71566" lon="5.88263">
        <ele>364.117989</ele>
        <time>2010-11-11T10:01:44Z</time>
      </trkpt>
      <trkpt lat="43.71635" lon="5.88347">
        <ele>364.118309</ele>
        <time>2010-11-11T10:02:09Z</time>
      </trkpt>
      <trkpt lat="43.71699" lon="5.88436">
        <ele>366.118629</ele>
        <time>2010-11-11T10:02:36Z</time>
      </trkpt>
      <trkpt lat="43.71787" lon="5.88476">
        <ele>358.1189</ele>
        <time>2010-11-11T10:03:06Z</time>
      </trkpt>
      <trkpt lat="43.71876" lon="5.88491">
        <ele>365.119118</ele>
        <time>2010-11-11T10:03:48Z</time>
      </trkpt>
      <trkpt lat="43.71922" lon="5.88604">
        <ele>365.119453</ele>
        <time>2010-11-11T10:04:14Z</time>
      </trkpt>
      <trkpt lat="43.71904" lon="5.88726">
        <ele>372.119675</ele>
        <time>2010-11-11T10:04:39Z</time>
      </trkpt>
      <trkpt lat="43.71917" lon="5.8885">
        <ele>374.119972</ele>
        <time>2010-11-11T10:05:18Z</time>
      </trkpt>
      <trkpt lat="43.71909" lon="5.88977">
        <ele>377.120224</ele>
        <time>2010-11-11T10:05:55Z</time>
      </trkpt>
      <trkpt lat="43.71912" lon="5.89104">
        <ele>382.120502</ele>
        <time>2010-11-11T10:06:31Z</time>
      </trkpt>
      <trkpt lat="43.71889" lon="5.89226">
        <ele>378.120716</ele>
        <time>2010-11-11T10:07:12Z</time>
      </trkpt>
      <trkpt lat="43.71847" lon="5.89341">
        <ele>387.120876</ele>
        <time>2010-11-11T10:07:52Z</time>
      </trkpt>
      <trkpt lat="43.71772" lon="5.89412">
        <ele>397.120872</ele>
        <time>2010-11-11T10:08:25Z</time>
      </trkpt>
      <trkpt lat="43.71722" lon="5.89516">
        <ele>401.120995</ele>
        <time>2010-11-11T10:08:52Z</time>
      </trkpt>
      <trkpt lat="43.71664" lon="5.89611">
        <ele>404.121078</ele>
        <time>2010-11-11T10:09:23Z</time>
      </trkpt>
      <trkpt lat="43.7158" lon="5.89661">
        <ele>411.12101</ele>
        <time>2010-11-11T10:09:51Z</time>
      </trkpt>
      <trkpt lat="43.71495" lon="5.89714">
        <ele>409.120953</ele>
        <time>2010-11-11T10:10:18Z</time>
      </trkpt>
      <trkpt lat="43.71424" lon="5.89791">
        <ele>410.120972</ele>
        <time>2010-11-11T10:10:45Z</time>
      </trkpt>
      <trkpt lat="43.71375" lon="5.89899">
        <ele>416.121101</ele>
        <time>2010-11-11T10:11:20Z</time>
      </trkpt>
      <trkpt lat="43.71308" lon="5.89984">
        <ele>429.121147</ele>
        <time>2010-11-11T10:12:08Z</time>
      </trkpt>
      <trkpt lat="43.71259" lon="5.9009">
        <ele>426.121269</ele>
        <time>2010-11-11T10:13:01Z</time>
      </trkpt>
      <trkpt lat="43.71259" lon="5.90215">
        <ele>435.121544</ele>
        <time>2010-11-11T10:14:08Z</time>
      </trkpt>
      <trkpt lat="43.71228" lon="5.90336">
        <ele>436.121735</ele>
        <time>2010-11-11T10:14:36Z</time>
      </trkpt>
      <trkpt lat="43.71211" lon="5.9046">
        <ele>441.121967</ele>
        <time>2010-11-11T10:15:10Z</time>
      </trkpt>
      <trkpt lat="43.71187" lon="5.90583">
        <ele>443.122177</ele>
        <time>2010-11-11T10:15:43Z</time>
      </trkpt>
      <trkpt lat="43.71106" lon="5.90638">
        <ele>455.122131</ele>
        <time>2010-11-11T10:16:39Z</time>
      </trkpt>
      <trkpt lat="43.71081" lon="5.90758">
        <ele>456.122337</ele>
        <time>2010-11-11T10:17:07Z</time>
      </trkpt>
      <trkpt lat="43.71077" lon="5.90883">
        <ele>463.122604</ele>
        <time>2010-11-11T10:17:56Z</time>
      </trkpt>
      <trkpt lat="43.71071" lon="5.91008">
        <ele>457.122856</ele>
        <time>2010-11-11T10:18:31Z</time>
      </trkpt>
      <trkpt lat="43.71025" lon="5.91118">
        <ele>458.123001</ele>
        <time>2010-11-11T10:19:12Z</time>
      </trkpt>
      <trkpt lat="43.70952" lon="5.91191">
        <ele>464.123009</ele>
        <time>2010-11-11T10:19:51Z</time>
      </trkpt>
      <trkpt lat="43.70938" lon="5.91317">
        <ele>468.123245</ele>
        <time>2010-11-11T10:20:32Z</time>
      </trkpt>
      <trkpt lat="43.71004" lon="5.91403">
        <ele>466.123573</ele>
        <time>2010-11-11T10:21:01Z</time>
      </trkpt>
      <trkpt lat="43.71089" lon="5.91354">
        <ele>460.123634</ele>
        <time>2010-11-11T10:21:27Z</time>
      </trkpt>
      <trkpt lat="43.71129" lon="5.91465">
        <ele>458.123955</ele>
        <time>2010-11-11T10:24:21Z</time>
      </trkpt>
      <trkpt lat="43.71185" lon="5.91563">
        <ele>457.124275</ele>
        <time>2010-11-11T10:24:46Z</time>
      </trkpt>
      <trkpt lat="43.7116" lon="5.91683">
        <ele>455.124485</ele>
        <time>2010-11-11T10:25:00Z</time>
      </trkpt>
      <trkpt lat="43.71127" lon="5.918">
        <ele>454.124668</ele>
        <time>2010-11-11T10:25:27Z</time>
      </trkpt>
      <trkpt lat="43.71089" lon="5.91913">
        <ele>449.124836</ele>
        <time>2010-11-11T10:26:15Z</time>
      </trkpt>
      <trkpt lat="43.71066" lon="5.92034">
        <ele>454.125046</ele>
        <time>2010-11-11T10:26:39Z</time>
      </trkpt>
      <trkpt lat="43.71036" lon="5.92154">
        <ele>461.125244</ele>
        <time>2010-11-11T10:27:05Z</time>
      </trkpt>
      <trkpt lat="43.70992" lon="5.92266">
        <ele>433.125397</ele>
        <time>2010-11-11T10:27:27Z</time>
      </trkpt>
      <trkpt lat="43.70952" lon="5.92382">
        <ele>438.125561</ele>
        <time>2010-11-11T10:27:48Z</time>
      </trkpt>
      <trkpt lat="43.70947" lon="5.92507">
        <ele>460.125816</ele>
        <time>2010-11-11T10:28:15Z</time>
      </trkpt>
      <trkpt lat="43.70983" lon="5.92625">
        <ele>470.126144</ele>
        <time>2010-11-11T10:28:46Z</time>
      </trkpt>
      <trkpt lat="43.70981" lon="5.92752">
        <ele>474.126415</ele>
        <time>2010-11-11T10:29:19Z</time>
      </trkpt>
      <trkpt lat="43.7089" lon="5.92749">
        <ele>478.126221</ele>
        <time>2010-11-11T10:30:08Z</time>
      </trkpt>
      <trkpt lat="43.70797" lon="5.92749">
        <ele>490.126034</ele>
        <time>2010-11-11T10:30:41Z</time>
      </trkpt>
      <trkpt lat="43.70726" lon="5.92672">
        <ele>499.125725</ele>
        <time>2010-11-11T10:31:13Z</time>
      </trkpt>
      <trkpt lat="43.70636" lon="5.92659">
        <ele>505.125511</ele>
        <time>2010-11-11T10:31:49Z</time>
      </trkpt>
      <trkpt lat="43.7056" lon="5.92729">
        <ele>504.125511</ele>
        <time>2010-11-11T10:32:17Z</time>
      </trkpt>
      <trkpt lat="43.70496" lon="5.92822">
        <ele>505.12558</ele>
        <time>2010-11-11T10:32:51Z</time>
      </trkpt>
      <trkpt lat="43.70425" lon="5.929">
        <ele>509.125599</ele>
        <time>2010-11-11T10:33:13Z</time>
      </trkpt>
      <trkpt lat="43.70343" lon="5.92957">
        <ele>509.125557</ele>
        <time>2010-11-11T10:33:39Z</time>
      </trkpt>
      <trkpt lat="43.70328" lon="5.93082">
        <ele>513.125797</ele>
        <time>2010-11-11T10:34:43Z</time>
      </trkpt>
      <trkpt lat="43.70338" lon="5.93206">
        <ele>517.126083</ele>
        <time>2010-11-11T10:35:31Z</time>
      </trkpt>
      <trkpt lat="43.70313" lon="5.93327">
        <ele>522.126289</ele>
        <time>2010-11-11T10:36:09Z</time>
      </trkpt>
      <trkpt lat="43.70252" lon="5.93423">
        <ele>525.126369</ele>
        <time>2010-11-11T10:36:35Z</time>
      </trkpt>
      <trkpt lat="43.70189" lon="5.93515">
        <ele>527.126442</ele>
        <time>2010-11-11T10:36:58Z</time>
      </trkpt>
      <trkpt lat="43.70122" lon="5.936">
        <ele>523.126488</ele>
        <time>2010-11-11T10:37:18Z</time>
      </trkpt>
      <trkpt lat="43.70032" lon="5.9363">
        <ele>517.126366</ele>
        <time>2010-11-11T10:37:40Z</time>
      </trkpt>
      <trkpt lat="43.69991" lon="5.93744">
        <ele>508.12653</ele>
        <time>2010-11-11T10:38:08Z</time>
      </trkpt>
      <trkpt lat="43.70046" lon="5.93845">
        <ele>506.126862</ele>
        <time>2010-11-11T10:38:44Z</time>
      </trkpt>
      <trkpt lat="43.70121" lon="5.93917">
        <ele>508.127167</ele>
        <time>2010-11-11T10:39:31Z</time>
      </trkpt>
      <trkpt lat="43.70159" lon="5.94033">
        <ele>506.127487</ele>
        <time>2010-11-11T10:40:01Z</time>
      </trkpt>
      <trkpt lat="43.70179" lon="5.94157">
        <ele>509.127804</ele>
        <time>2010-11-11T10:40:29Z</time>
      </trkpt>
      <trkpt lat="43.70218" lon="5.94271">
        <ele>510.12812</ele>
        <time>2010-11-11T10:40:58Z</time>
      </trkpt>
      <trkpt lat="43.70287" lon="5.94357">
        <ele>510.128448</ele>
        <time>2010-11-11T10:41:28Z</time>
      </trkpt>
      <trkpt lat="43.7035" lon="5.94446">
        <ele>518.128769</ele>
        <time>2010-11-11T10:42:10Z</time>
      </trkpt>
      <trkpt lat="43.70422" lon="5.94528">
        <ele>513.129089</ele>
        <time>2010-11-11T10:43:10Z</time>
      </trkpt>
      <trkpt lat="43.70498" lon="5.94602">
        <ele>522.129402</ele>
        <time>2010-11-11T10:43:46Z</time>
      </trkpt>
      <trkpt lat="43.70573" lon="5.94676">
        <ele>525.129715</ele>
        <time>2010-11-11T10:44:00Z</time>
      </trkpt>
      <trkpt lat="43.70648" lon="5.94751">
        <ele>522.130028</ele>
        <time>2010-11-11T10:44:15Z</time>
      </trkpt>
      <trkpt lat="43.70728" lon="5.9481">
        <ele>521.130318</ele>
        <time>2010-11-11T10:44:37Z</time>
      </trkpt>
      <trkpt lat="43.7081" lon="5.94869">
        <ele>521.130608</ele>
        <time>2010-11-11T10:44:54Z</time>
      </trkpt>
      <trkpt lat="43.7089" lon="5.94935">
        <ele>526.130913</ele>
        <time>2010-11-11T10:45:15Z</time>
      </trkpt>
      <trkpt lat="43.70868" lon="5.95062">
        <ele>528.131142</ele>
        <time>2010-11-11T10:45:41Z</time>
      </trkpt>
      <trkpt lat="43.7081" lon="5.95165">
        <ele>528.131241</ele>
        <time>2010-11-11T10:46:00Z</time>
      </trkpt>
      <trkpt lat="43.70879" lon="5.95249">
        <ele>525.131561</ele>
        <time>2010-11-11T10:46:27Z</time>
      </trkpt>
      <trkpt lat="43.70967" lon="5.95281">
        <ele>525.131813</ele>
        <time>2010-11-11T10:46:42Z</time>
      </trkpt>
      <trkpt lat="43.71057" lon="5.95307">
        <ele>524.132046</ele>
        <time>2010-11-11T10:47:09Z</time>
      </trkpt>
      <trkpt lat="43.71135" lon="5.95371">
        <ele>526.132347</ele>
        <time>2010-11-11T10:47:36Z</time>
      </trkpt>
      <trkpt lat="43.71219" lon="5.95416">
        <ele>528.132614</ele>
        <time>2010-11-11T10:48:46Z</time>
      </trkpt>
      <trkpt lat="43.71305" lon="5.95455">
        <ele>533.13287</ele>
        <time>2010-11-11T10:49:49Z</time>
      </trkpt>
      <trkpt lat="43.71395" lon="5.95478">
        <ele>540.133099</ele>
        <time>2010-11-11T10:51:21Z</time>
      </trkpt>
      <trkpt lat="43.71486" lon="5.95466">
        <ele>548.133255</ele>
        <time>2010-11-11T10:52:29Z</time>
      </trkpt>
      <trkpt lat="43.71522" lon="5.95352">
        <ele>553.133087</ele>
        <time>2010-11-11T10:53:20Z</time>
      </trkpt>
      <trkpt lat="43.71518" lon="5.95226">
        <ele>550.132809</ele>
        <time>2010-11-11T10:54:02Z</time>
      </trkpt>
      <trkpt lat="43.71456" lon="5.95131">
        <ele>548.132477</ele>
        <time>2010-11-11T10:54:29Z</time>
      </trkpt>
      <trkpt lat="43.71416" lon="5.9502">
        <ele>546.13216</ele>
        <time>2010-11-11T10:54:51Z</time>
      </trkpt>
      <trkpt lat="43.71422" lon="5.94895">
        <ele>542.131905</ele>
        <time>2010-11-11T10:57:50Z</time>
      </trkpt>
      <trkpt lat="43.71433" lon="5.94769">
        <ele>545.131657</ele>
        <time>2010-11-11T10:58:30Z</time>
      </trkpt>
      <trkpt lat="43.7149" lon="5.94666">
        <ele>548.13155</ele>
        <time>2010-11-11T10:58:59Z</time>
      </trkpt>
      <trkpt lat="43.7158" lon="5.94643">
        <ele>552.131683</ele>
        <time>2010-11-11T10:59:17Z</time>
      </trkpt>
      <trkpt lat="43.71666" lon="5.94679">
        <ele>553.131935</ele>
        <time>2010-11-11T10:59:51Z</time>
      </trkpt>
      <trkpt lat="43.71747" lon="5.94735">
        <ele>561.132217</ele>
        <time>2010-11-11T11:00:57Z</time>
      </trkpt>
      <trkpt lat="43.71829" lon="5.94795">
        <ele>567.132515</ele>
        <time>2010-11-11T11:01:54Z</time>
      </trkpt>
      <trkpt lat="43.71838" lon="5.94923">
        <ele>558.132805</ele>
        <time>2010-11-11T11:02:18Z</time>
      </trkpt>
      <trkpt lat="43.71876" lon="5.95038">
        <ele>557.133133</ele>
        <time>2010-11-11T11:02:34Z</time>
      </trkpt>
      <trkpt lat="43.71949" lon="5.95118">
        <ele>556.133446</ele>
        <time>2010-11-11T11:02:50Z</time>
      </trkpt>
      <trkpt lat="43.72035" lon="5.95172">
        <ele>551.133736</ele>
        <time>2010-11-11T11:03:08Z</time>
      </trkpt>
      <trkpt lat="43.72098" lon="5.95265">
        <ele>546.134064</ele>
        <time>2010-11-11T11:03:27Z</time>
      </trkpt>
      <trkpt lat="43.72163" lon="5.95355">
        <ele>534.134392</ele>
        <time>2010-11-11T11:03:48Z</time>
      </trkpt>
      <trkpt lat="43.72167" lon="5.95228">
        <ele>521.134125</ele>
        <time>2010-11-11T11:04:28Z</time>
      </trkpt>
      <trkpt lat="43.72249" lon="5.95174">
        <ele>522.134171</ele>
        <time>2010-11-11T11:04:41Z</time>
      </trkpt>
      <trkpt lat="43.7232" lon="5.9526">
        <ele>524.134506</ele>
        <time>2010-11-11T11:04:56Z</time>
      </trkpt>
      <trkpt lat="43.72414" lon="5.95275">
        <ele>519.13472</ele>
        <time>2010-11-11T11:05:10Z</time>
      </trkpt>
      <trkpt lat="43.72477" lon="5.95181">
        <ele>510.134651</ele>
        <time>2010-11-11T11:05:29Z</time>
      </trkpt>
      <trkpt lat="43.7241" lon="5.95092">
        <ele>498.134323</ele>
        <time>2010-11-11T11:05:42Z</time>
      </trkpt>
      <trkpt lat="43.72386" lon="5.94969">
        <ele>491.13401</ele>
        <time>2010-11-11T11:05:57Z</time>
      </trkpt>
      <trkpt lat="43.72476" lon="5.94977">
        <ele>495.134212</ele>
        <time>2010-11-11T11:06:47Z</time>
      </trkpt>
      <trkpt lat="43.72546" lon="5.94898">
        <ele>503.134186</ele>
        <time>2010-11-11T11:07:43Z</time>
      </trkpt>
      <trkpt lat="43.72558" lon="5.9477">
        <ele>502.133938</ele>
        <time>2010-11-11T11:08:29Z</time>
      </trkpt>
      <trkpt lat="43.72604" lon="5.94663">
        <ele>493.133801</ele>
        <time>2010-11-11T11:08:46Z</time>
      </trkpt>
      <trkpt lat="43.72512" lon="5.94676">
        <ele>485.133644</ele>
        <time>2010-11-11T11:09:10Z</time>
      </trkpt>
      <trkpt lat="43.72422" lon="5.94637">
        <ele>484.133377</ele>
        <time>2010-11-11T11:09:32Z</time>
      </trkpt>
      <trkpt lat="43.72356" lon="5.94551">
        <ele>479.133057</ele>
        <time>2010-11-11T11:10:12Z</time>
      </trkpt>
      <trkpt lat="43.7228" lon="5.94472">
        <ele>474.13274</ele>
        <time>2010-11-11T11:11:16Z</time>
      </trkpt>
      <trkpt lat="43.7219" lon="5.94455">
        <ele>489.132515</ele>
        <time>2010-11-11T11:11:53Z</time>
      </trkpt>
      <trkpt lat="43.721" lon="5.94452">
        <ele>501.132332</ele>
        <time>2010-11-11T11:13:16Z</time>
      </trkpt>
      <trkpt lat="43.72014" lon="5.94492">
        <ele>509.13224</ele>
        <time>2010-11-11T11:14:57Z</time>
      </trkpt>
      <trkpt lat="43.71922" lon="5.94505">
        <ele>538.132084</ele>
        <time>2010-11-11T11:17:17Z</time>
      </trkpt>
      <trkpt lat="43.71827" lon="5.94523">
        <ele>555.131927</ele>
        <time>2010-11-11T11:20:02Z</time>
      </trkpt>
      <trkpt lat="43.71739" lon="5.94552">
        <ele>557.131809</ele>
        <time>2010-11-11T11:20:43Z</time>
      </trkpt>
      <trkpt lat="43.71646" lon="5.9454">
        <ele>562.131599</ele>
        <time>2010-11-11T11:21:20Z</time>
      </trkpt>
      <trkpt lat="43.71553" lon="5.94521">
        <ele>562.131371</ele>
        <time>2010-11-11T11:21:46Z</time>
      </trkpt>
      <trkpt lat="43.71579" lon="5.94399">
        <ele>564.131157</ele>
        <time>2010-11-11T11:23:13Z</time>
      </trkpt>
      <trkpt lat="43.71635" lon="5.94299">
        <ele>570.131058</ele>
        <time>2010-11-11T11:23:54Z</time>
      </trkpt>
      <trkpt lat="43.71687" lon="5.94195">
        <ele>577.130939</ele>
        <time>2010-11-11T11:24:44Z</time>
      </trkpt>
      <trkpt lat="43.71738" lon="5.9409">
        <ele>585.130821</ele>
        <time>2010-11-11T11:25:35Z</time>
      </trkpt>
      <trkpt lat="43.71789" lon="5.93984">
        <ele>590.130699</ele>
        <time>2010-11-11T11:26:10Z</time>
      </trkpt>
      <trkpt lat="43.71846" lon="5.9388">
        <ele>593.130589</ele>
        <time>2010-11-11T11:26:37Z</time>
      </trkpt>
      <trkpt lat="43.71915" lon="5.93796">
        <ele>597.130554</ele>
        <time>2010-11-11T11:27:01Z</time>
      </trkpt>
      <trkpt lat="43.71985" lon="5.9371">
        <ele>601.130508</ele>
        <time>2010-11-11T11:27:30Z</time>
      </trkpt>
      <trkpt lat="43.72042" lon="5.93612">
        <ele>592.130409</ele>
        <time>2010-11-11T11:27:55Z</time>
      </trkpt>
      <trkpt lat="43.72051" lon="5.93484">
        <ele>591.130157</ele>
        <time>2010-11-11T11:28:09Z</time>
      </trkpt>
      <trkpt lat="43.72061" lon="5.93359">
        <ele>592.12991</ele>
        <time>2010-11-11T11:28:23Z</time>
      </trkpt>
      <trkpt lat="43.72123" lon="5.93254">
        <ele>589.129814</ele>
        <time>2010-11-11T11:28:36Z</time>
      </trkpt>
      <trkpt lat="43.72177" lon="5.93148">
        <ele>586.1297</ele>
        <time>2010-11-11T11:28:47Z</time>
      </trkpt>
      <trkpt lat="43.72156" lon="5.93021">
        <ele>584.129383</ele>
        <time>2010-11-11T11:29:04Z</time>
      </trkpt>
      <trkpt lat="43.72065" lon="5.92994">
        <ele>581.129143</ele>
        <time>2010-11-11T11:29:30Z</time>
      </trkpt>
      <trkpt lat="43.71971" lon="5.92977">
        <ele>583.128914</ele>
        <time>2010-11-11T11:29:48Z</time>
      </trkpt>
      <trkpt lat="43.71899" lon="5.92902">
        <ele>579.128601</ele>
        <time>2010-11-11T11:30:01Z</time>
      </trkpt>
      <trkpt lat="43.71831" lon="5.92817">
        <ele>575.128288</ele>
        <time>2010-11-11T11:30:24Z</time>
      </trkpt>
      <trkpt lat="43.71737" lon="5.92811">
        <ele>572.128082</ele>
        <time>2010-11-11T11:30:44Z</time>
      </trkpt>
      <trkpt lat="43.71642" lon="5.92833">
        <ele>570.127934</ele>
        <time>2010-11-11T11:30:57Z</time>
      </trkpt>
      <trkpt lat="43.7155" lon="5.92845">
        <ele>550.127769</ele>
        <time>2010-11-11T11:31:56Z</time>
      </trkpt>
      <trkpt lat="43.71472" lon="5.92917">
        <ele>552.127766</ele>
        <time>2010-11-11T11:32:19Z</time>
      </trkpt>
      <trkpt lat="43.71388" lon="5.92972">
        <ele>548.127716</ele>
        <time>2010-11-11T11:32:36Z</time>
      </trkpt>
      <trkpt lat="43.71309" lon="5.93037">
        <ele>544.127693</ele>
        <time>2010-11-11T11:32:52Z</time>
      </trkpt>
      <trkpt lat="43.71276" lon="5.92917">
        <ele>529.127365</ele>
        <time>2010-11-11T11:33:17Z</time>
      </trkpt>
      <trkpt lat="43.71287" lon="5.92791">
        <ele>519.127121</ele>
        <time>2010-11-11T11:33:33Z</time>
      </trkpt>
      <trkpt lat="43.71304" lon="5.92665">
        <ele>511.126884</ele>
        <time>2010-11-11T11:33:46Z</time>
      </trkpt>
      <trkpt lat="43.71339" lon="5.92543">
        <ele>504.126694</ele>
        <time>2010-11-11T11:33:59Z</time>
      </trkpt>
      <trkpt lat="43.71363" lon="5.92422">
        <ele>496.126488</ele>
        <time>2010-11-11T11:34:16Z</time>
      </trkpt>
      <trkpt lat="43.71417" lon="5.92317">
        <ele>489.126373</ele>
        <time>2010-11-11T11:34:35Z</time>
      </trkpt>
      <trkpt lat="43.71372" lon="5.92199">
        <ele>484.126022</ele>
        <time>2010-11-11T11:34:54Z</time>
      </trkpt>
      <trkpt lat="43.71396" lon="5.92071">
        <ele>481.125801</ele>
        <time>2010-11-11T11:35:11Z</time>
      </trkpt>
      <trkpt lat="43.7142" lon="5.91951">
        <ele>478.125595</ele>
        <time>2010-11-11T11:35:24Z</time>
      </trkpt>
      <trkpt lat="43.7149" lon="5.91869">
        <ele>470.125561</ele>
        <time>2010-11-11T11:36:00Z</time>
      </trkpt>
      <trkpt lat="43.71529" lon="5.91751">
        <ele>470.125385</ele>
        <time>2010-11-11T11:36:26Z</time>
      </trkpt>
      <trkpt lat="43.71532" lon="5.91616">
        <ele>468.125099</ele>
        <time>2010-11-11T11:36:38Z</time>
      </trkpt>
      <trkpt lat="43.71491" lon="5.91498">
        <ele>461.124763</ele>
        <time>2010-11-11T11:36:56Z</time>
      </trkpt>
      <trkpt lat="43.71458" lon="5.9138">
        <ele>447.124443</ele>
        <time>2010-11-11T11:37:08Z</time>
      </trkpt>
      <trkpt lat="43.71436" lon="5.91258">
        <ele>440.124138</ele>
        <time>2010-11-11T11:37:24Z</time>
      </trkpt>
      <trkpt lat="43.71526" lon="5.91252">
        <ele>439.124306</ele>
        <time>2010-11-11T11:37:52Z</time>
      </trkpt>
      <trkpt lat="43.71618" lon="5.91245">
        <ele>446.124481</ele>
        <time>2010-11-11T11:38:44Z</time>
      </trkpt>
      <trkpt lat="43.71694" lon="5.9131">
        <ele>445.124779</ele>
        <time>2010-11-11T11:39:57Z</time>
      </trkpt>
      <trkpt lat="43.71742" lon="5.91417">
        <ele>475.125103</ele>
        <time>2010-11-11T11:41:56Z</time>
      </trkpt>
      <trkpt lat="43.71831" lon="5.91436">
        <ele>481.125328</ele>
        <time>2010-11-11T11:42:52Z</time>
      </trkpt>
      <trkpt lat="43.7192" lon="5.91415">
        <ele>485.125465</ele>
        <time>2010-11-11T11:43:24Z</time>
      </trkpt>
      <trkpt lat="43.72008" lon="5.91444">
        <ele>491.125706</ele>
        <time>2010-11-11T11:44:18Z</time>
      </trkpt>
      <trkpt lat="43.72045" lon="5.91558">
        <ele>503.126026</ele>
        <time>2010-11-11T11:46:08Z</time>
      </trkpt>
      <trkpt lat="43.72018" lon="5.91677">
        <ele>520.126225</ele>
        <time>2010-11-11T11:47:26Z</time>
      </trkpt>
      <trkpt lat="43.7211" lon="5.91695">
        <ele>530.12645</ele>
        <time>2010-11-11T11:48:31Z</time>
      </trkpt>
      <trkpt lat="43.72191" lon="5.91639">
        <ele>528.126495</ele>
        <time>2010-11-11T11:49:48Z</time>
      </trkpt>
      <trkpt lat="43.72242" lon="5.91531">
        <ele>524.126369</ele>
        <time>2010-11-11T11:50:04Z</time>
      </trkpt>
      <trkpt lat="43.72304" lon="5.91441">
        <ele>524.126305</ele>
        <time>2010-11-11T11:50:40Z</time>
      </trkpt>
      <trkpt lat="43.72387" lon="5.91383">
        <ele>528.12635</ele>
        <time>2010-11-11T11:51:33Z</time>
      </trkpt>
      <trkpt lat="43.72455" lon="5.91296">
        <ele>527.126305</ele>
        <time>2010-11-11T11:52:14Z</time>
      </trkpt>
      <trkpt lat="43.72526" lon="5.91218">
        <ele>529.126278</ele>
        <time>2010-11-11T11:53:21Z</time>
      </trkpt>
      <trkpt lat="43.72575" lon="5.91105">
        <ele>528.126137</ele>
        <time>2010-11-11T11:53:43Z</time>
      </trkpt>
      <trkpt lat="43.72662" lon="5.91067">
        <ele>525.12624</ele>
        <time>2010-11-11T11:53:57Z</time>
      </trkpt>
      <trkpt lat="43.72672" lon="5.90942">
        <ele>513.125992</ele>
        <time>2010-11-11T11:54:15Z</time>
      </trkpt>
      <trkpt lat="43.72757" lon="5.90901">
        <ele>510.126076</ele>
        <time>2010-11-11T11:54:35Z</time>
      </trkpt>
      <trkpt lat="43.72848" lon="5.90888">
        <ele>497.126232</ele>
        <time>2010-11-11T11:55:12Z</time>
      </trkpt>
      <trkpt lat="43.72903" lon="5.90789">
        <ele>505.126137</ele>
        <time>2010-11-11T11:55:59Z</time>
      </trkpt>
      <trkpt lat="43.7297" lon="5.90703">
        <ele>518.126083</ele>
        <time>2010-11-11T11:57:10Z</time>
      </trkpt>
      <trkpt lat="43.73055" lon="5.90661">
        <ele>529.126175</ele>
        <time>2010-11-11T11:59:15Z</time>
      </trkpt>
      <trkpt lat="43.73097" lon="5.9055">
        <ele>542.126022</ele>
        <time>2010-11-11T12:00:11Z</time>
      </trkpt>
      <trkpt lat="43.73116" lon="5.90427">
        <ele>545.125801</ele>
        <time>2010-11-11T12:01:15Z</time>
      </trkpt>
      <trkpt lat="43.73185" lon="5.90345">
        <ele>551.125767</ele>
        <time>2010-11-11T12:02:20Z</time>
      </trkpt>
      <trkpt lat="43.73227" lon="5.90232">
        <ele>565.12561</ele>
        <time>2010-11-11T12:03:41Z</time>
      </trkpt>
      <trkpt lat="43.73282" lon="5.90129">
        <ele>571.125504</ele>
        <time>2010-11-11T12:04:28Z</time>
      </trkpt>
      <trkpt lat="43.7334" lon="5.90031">
        <ele>573.125412</ele>
        <time>2010-11-11T12:04:57Z</time>
      </trkpt>
      <trkpt lat="43.73371" lon="5.89907">
        <ele>573.125206</ele>
        <time>2010-11-11T12:05:22Z</time>
      </trkpt>
      <trkpt lat="43.73412" lon="5.89794">
        <ele>572.125053</ele>
        <time>2010-11-11T12:05:49Z</time>
      </trkpt>
      <trkpt lat="43.73453" lon="5.89681">
        <ele>541.124893</ele>
        <time>2010-11-11T12:07:30Z</time>
      </trkpt>
      <trkpt lat="43.73489" lon="5.89563">
        <ele>534.124722</ele>
        <time>2010-11-11T12:08:15Z</time>
      </trkpt>
      <trkpt lat="43.7356" lon="5.89483">
        <ele>531.124695</ele>
        <time>2010-11-11T12:09:04Z</time>
      </trkpt>
      <trkpt lat="43.73638" lon="5.8942">
        <ele>529.124722</ele>
        <time>2010-11-11T12:09:46Z</time>
      </trkpt>
      <trkpt lat="43.73728" lon="5.89392">
        <ele>528.124847</ele>
        <time>2010-11-11T12:10:15Z</time>
      </trkpt>
      <trkpt lat="43.73815" lon="5.89356">
        <ele>523.124947</ele>
        <time>2010-11-11T12:11:35Z</time>
      </trkpt>
      <trkpt lat="43.73904" lon="5.89391">
        <ele>497.125206</ele>
        <time>2010-11-11T12:12:14Z</time>
      </trkpt>
      <trkpt lat="43.73986" lon="5.89337">
        <ele>482.125256</ele>
        <time>2010-11-11T12:12:36Z</time>
      </trkpt>
      <trkpt lat="43.74076" lon="5.89332">
        <ele>476.125435</ele>
        <time>2010-11-11T12:12:57Z</time>
      </trkpt>
      <trkpt lat="43.74141" lon="5.89243">
        <ele>464.125374</ele>
        <time>2010-11-11T12:13:29Z</time>
      </trkpt>
      <trkpt lat="43.74224" lon="5.89188">
        <ele>460.125431</ele>
        <time>2010-11-11T12:13:46Z</time>
      </trkpt>
      <trkpt lat="43.74313" lon="5.8915">
        <ele>459.125526</ele>
        <time>2010-11-11T12:14:06Z</time>
      </trkpt>
      <trkpt lat="43.74401" lon="5.8911">
        <ele>452.125626</ele>
        <time>2010-11-11T12:14:30Z</time>
      </trkpt>
      <trkpt lat="43.74465" lon="5.89012">
        <ele>442.125553</ele>
        <time>2010-11-11T12:14:47Z</time>
      </trkpt>
      <trkpt lat="43.74539" lon="5.88931">
        <ele>434.125534</ele>
        <time>2010-11-11T12:15:00Z</time>
      </trkpt>
      <trkpt lat="43.74634" lon="5.88909">
        <ele>422.125679</ele>
        <time>2010-11-11T12:15:19Z</time>
      </trkpt>
      <trkpt lat="43.74726" lon="5.88893">
        <ele>412.125832</ele>
        <time>2010-11-11T12:15:31Z</time>
      </trkpt>
      <trkpt lat="43.74816" lon="5.88895">
        <ele>401.126022</ele>
        <time>2010-11-11T12:15:48Z</time>
      </trkpt>
      <trkpt lat="43.74905" lon="5.8891">
        <ele>393.126244</ele>
        <time>2010-11-11T12:16:07Z</time>
      </trkpt>
      <trkpt lat="43.74998" lon="5.88926">
        <ele>375.126465</ele>
        <time>2010-11-11T12:16:28Z</time>
      </trkpt>
      <trkpt lat="43.75078" lon="5.88988">
        <ele>370.126759</ele>
        <time>2010-11-11T12:16:49Z</time>
      </trkpt>
      <trkpt lat="43.75161" lon="5.89052">
        <ele>362.127068</ele>
        <time>2010-11-11T12:17:14Z</time>
      </trkpt>
      <trkpt lat="43.75251" lon="5.89085">
        <ele>357.127319</ele>
        <time>2010-11-11T12:17:32Z</time>
      </trkpt>
      <trkpt lat="43.75329" lon="5.89018">
        <ele>338.127338</ele>
        <time>2010-11-11T12:18:13Z</time>
      </trkpt>
      <trkpt lat="43.75418" lon="5.8899">
        <ele>330.127464</ele>
        <time>2010-11-11T12:18:45Z</time>
      </trkpt>
      <trkpt lat="43.75422" lon="5.89117">
        <ele>326.127739</ele>
        <time>2010-11-11T12:19:08Z</time>
      </trkpt>
    </trkseg>
  </trk>
</gpx>